Cinzia A — TCA4007 — position and weather

sailwx.info

Track history (hours):
 
Tides and Currents Weather Stations Pressure Air Temp Water Temp Dewpoint Dewpoint Depression Visibility Wind Speed Wind Dir Waves Ship Positions

Cinzia A

Last reported at 2018-May-20 17:31 UTC. Time now 2018-May-20 17:49 UTC.
Position N 41°17' E 002°25'.

Length 200 m; draft 9.2 m.

Type: Ship (hazmat cat A). MMSI: 271044448.

Date/timePositionNaut miles runAvg speedWind from/ knotsBaromVisibWave heightAir tempDewpointWater temp
2018-May-20 17:31N 41°17' E 002°25'611.5
2018-May-20 17:01N 41°21' E 002°31'14811.9
2018-May-20 04:38N 43°05' E 004°53'211.6
2018-May-20 04:30N 43°06' E 004°54'611.6
2018-May-20 04:00N 43°10' E 004°59'510.7
2018-May-20 03:30N 43°16' E 004°60'611.4
2018-May-20 03:00N 43°21' E 004°58'5 9.6
2018-May-20 02:30N 43°24' E 004°52'2 3.4
2018-May-20 01:59N 43°25' E 004°50'0 0.0
2018-May-20 01:14N 43°25' E 004°50'0 0.0
2018-May-20 00:59N 43°25' E 004°50'0 0.0
2018-May-20 00:29N 43°25' E 004°50'0 0.0
2018-May-20 00:00N 43°25' E 004°50'0 0.0
2018-May-19 23:28N 43°25' E 004°50'0 0.0
2018-May-19 23:00N 43°25' E 004°50'0 0.0
2018-May-19 22:28N 43°25' E 004°50'0 0.0
2018-May-19 21:55N 43°25' E 004°50'0 0.0
2018-May-19 21:25N 43°25' E 004°50'0 0.0
2018-May-19 20:58N 43°25' E 004°50'0 0.0
2018-May-19 20:23N 43°25' E 004°50'0 0.0
2018-May-19 19:38N 43°25' E 004°50'0 0.0
2018-May-19 19:23N 43°25' E 004°50'0 0.0
2018-May-19 18:59N 43°25' E 004°50'0 0.0
2018-May-19 18:26N 43°25' E 004°50'0 0.0
2018-May-19 17:57N 43°25' E 004°50'0 0.0
2018-May-19 17:30N 43°25' E 004°50'0 0.5
2018-May-19 17:00N 43°25' E 004°51'4 7.1
2018-May-19 16:31N 43°24' E 004°55'611.1
2018-May-19 16:00N 43°19' E 004°60'611.6
2018-May-19 15:28N 43°13' E 005°02'7911.2
2018-May-19 08:25N 42°55' E 006°48'914.4
2018-May-19 07:47N 43°01' E 006°57'614.4
2018-May-19 07:23N 43°05' E 007°03'514.2
2018-May-19 07:00N 43°09' E 007°08'713.9
2018-May-19 06:30N 43°14' E 007°15'713.9
2018-May-19 06:00N 43°18' E 007°22'714.3
2018-May-19 05:30N 43°23' E 007°30'714.5
2018-May-19 05:00N 43°27' E 007°38'714.4
2018-May-19 04:30N 43°32' E 007°46'714.3
2018-May-19 04:00N 43°37' E 007°52'714.8
2018-May-19 03:30N 43°42' E 007°60'714.6
2018-May-19 03:00N 43°47' E 008°07'714.4
2018-May-19 02:30N 43°52' E 008°14'714.4
2018-May-19 02:00N 43°57' E 008°22'714.2
2018-May-19 01:30N 44°01' E 008°29'714.3
2018-May-19 01:00N 44°06' E 008°36'714.0
2018-May-19 00:30N 44°11' E 008°44'713.9
2018-May-19 00:00N 44°16' E 008°51'713.6
2018-May-18 23:30N 44°20' E 008°57'4 8.3
2018-May-18 23:00N 44°24' E 008°54'0 0.9
2018-May-18 22:29N 44°24' E 008°54'0 0.0
2018-May-18 21:53N 44°24' E 008°54'0 0.0
2018-May-18 21:29N 44°24' E 008°54'0 0.0
2018-May-18 20:59N 44°24' E 008°54'0 0.0
2018-May-18 20:29N 44°24' E 008°54'0 0.0
2018-May-18 19:59N 44°24' E 008°54'0 0.0
2018-May-18 19:29N 44°24' E 008°54'0 0.0
2018-May-18 18:59N 44°24' E 008°54'0 0.0
2018-May-18 18:29N 44°24' E 008°54'0 0.0
2018-May-18 17:59N 44°24' E 008°54'0 0.0
2018-May-18 17:29N 44°24' E 008°54'1 1.8
2018-May-18 17:01N 44°24' E 008°55'3 6.0
2018-May-18 16:30N 44°22' E 008°58'0 0.6
2018-May-18 16:00N 44°22' E 008°58'0 0.4
2018-May-18 15:30N 44°22' E 008°59'1 1.3
2018-May-18 15:00N 44°21' E 008°59'4 7.3
2018-May-18 14:30N 44°18' E 009°00'612.7
2018-May-18 14:00N 44°12' E 009°03'713.0
2018-May-18 13:30N 44°06' E 009°07'713.1
2018-May-18 13:00N 43°60' E 009°10'612.9
2018-May-18 12:30N 43°54' E 009°13'612.9
2018-May-18 12:00N 43°48' E 009°16'712.9
2018-May-18 11:30N 43°41' E 009°19'613.2
2018-May-18 11:00N 43°35' E 009°22'713.3
2018-May-18 10:30N 43°29' E 009°25'713.3
2018-May-18 10:01N 43°23' E 009°29'714.0
2018-May-18 09:30N 43°16' E 009°32'714.0
2018-May-18 09:01N 43°10' E 009°36'714.5
2018-May-18 08:31N 43°03' E 009°39'714.9
2018-May-18 08:00N 42°56' E 009°41'1014.5
2018-May-18 07:21N 42°46' E 009°44'32714.2
2018-May-17 08:19N 38°56' E 014°50'514.6
2018-May-17 07:58N 38°53' E 014°55'714.5
2018-May-17 07:30N 38°49' E 015°02'714.5
2018-May-17 06:59N 38°43' E 015°09'714.6
2018-May-17 06:30N 38°39' E 015°16'814.9
2018-May-17 05:59N 38°33' E 015°23'715.0
2018-May-17 05:30N 38°28' E 015°30'714.7
2018-May-17 05:01N 38°24' E 015°36'714.2
2018-May-17 04:30N 38°18' E 015°42'713.7
2018-May-17 04:01N 38°13' E 015°37'713.9
2018-May-17 03:30N 38°06' E 015°36'814.8
2018-May-17 02:59N 37°58' E 015°36'714.4
2018-May-17 02:31N 37°53' E 015°41'815.8
2018-May-17 02:01N 37°51' E 015°51'815.6
2018-May-17 01:28N 37°48' E 016°01'73616.1
2018-May-15 03:54N 34°08' E 030°29'716.3
2018-May-15 03:29N 34°05' E 030°36'816.7
2018-May-15 03:00N 34°02' E 030°45'916.7
2018-May-15 02:28N 33°59' E 030°55'816.9
2018-May-15 01:59N 33°56' E 031°04'816.9
2018-May-15 01:30N 33°53' E 031°13'1016.8
2018-May-15 00:55N 33°49' E 031°24'3716.6
2018-May-14 22:41N 33°36' E 032°06'817.0
2018-May-14 22:13N 33°33' E 032°15'12416.6
2018-May-14 14:46N 32°57' E 034°36'416.1
2018-May-14 14:30N 32°56' E 034°41'816.4
2018-May-14 14:00N 32°54' E 034°51'7 0.2
2018-May-12 21:07N 32°53' E 034°59'1 1.2
2018-May-12 20:29N 32°53' E 034°59'0 0.0
2018-May-12 18:37N 32°53' E 034°59'0 0.1
2018-May-12 18:28N 32°53' E 034°59'0 0.0
2018-May-12 17:18N 32°53' E 034°59'0 0.0
2018-May-12 17:00N 32°53' E 034°59'0 0.0
2018-May-12 16:28N 32°53' E 034°59'0 0.0
2018-May-12 15:39N 32°53' E 034°59'0 0.1
2018-May-12 15:26N 32°53' E 034°59'0 0.0
2018-May-12 14:58N 32°53' E 034°59'0 0.0
2018-May-12 14:30N 32°53' E 034°59'0 0.0
2018-May-12 14:00N 32°53' E 034°59'0 0.0
2018-May-12 13:29N 32°53' E 034°59'0 0.0
2018-May-12 13:00N 32°53' E 034°59'0 0.0
2018-May-12 12:30N 32°53' E 034°59'0 0.0
2018-May-12 11:59N 32°53' E 034°59'0 0.1
2018-May-12 11:29N 32°53' E 034°59'0 0.0
2018-May-12 10:48N 32°53' E 034°59'0 0.0
2018-May-12 09:14N 32°53' E 034°59'0 0.0
2018-May-12 08:49N 32°53' E 034°59'0 0.0
2018-May-12 08:24N 32°53' E 034°59'0 0.0
2018-May-12 07:58N 32°53' E 034°59'0 0.1
2018-May-12 07:30N 32°53' E 034°59'0 0.1
2018-May-12 06:54N 32°53' E 034°59'0 0.0
2018-May-12 06:31N 32°53' E 034°59'0 0.0
2018-May-12 04:53N 32°53' E 034°59'0 0.0
2018-May-12 04:27N 32°53' E 034°59'0 0.0
2018-May-12 04:00N 32°53' E 034°59'0 0.0
2018-May-12 03:27N 32°53' E 034°59'0 0.0
2018-May-12 02:59N 32°53' E 034°59'0 0.0
2018-May-12 02:29N 32°53' E 034°59'0 0.0
2018-May-12 01:54N 32°53' E 034°59'0 0.1
2018-May-12 01:30N 32°53' E 034°59'0 0.2
2018-May-12 01:00N 32°53' E 034°59'0 0.2
2018-May-12 00:21N 32°53' E 034°59'0 0.1
2018-May-11 23:56N 32°53' E 034°59'0 0.1
2018-May-11 23:29N 32°53' E 034°59'0 0.1
2018-May-11 22:54N 32°53' E 034°59'0 0.0
2018-May-11 21:32N 32°53' E 034°59'0 0.1
2018-May-11 21:14N 32°53' E 034°59'0 0.0
2018-May-11 20:52N 32°53' E 034°59'0 0.0
2018-May-11 20:24N 32°53' E 034°59'0 0.0
2018-May-11 19:59N 32°53' E 034°59'0 0.0
2018-May-11 19:28N 32°53' E 034°59'0 0.0
2018-May-11 17:13N 32°53' E 034°59'0 0.1
2018-May-11 16:45N 32°53' E 034°59'0 0.1
2018-May-11 16:28N 32°53' E 034°59'0 0.0
2018-May-11 15:59N 32°53' E 034°59'0 0.0
2018-May-11 14:32N 32°53' E 034°59'0 0.1
2018-May-11 14:14N 32°53' E 034°59'0 0.1
2018-May-11 13:53N 32°53' E 034°59'0 0.1
2018-May-11 13:29N 32°53' E 034°59'0 0.1
2018-May-11 12:50N 32°53' E 034°59'0 0.0
2018-May-11 12:05N 32°53' E 034°59'0 0.1
2018-May-11 12:00N 32°53' E 034°59'0 0.0
2018-May-11 11:11N 32°53' E 034°59'0 0.1
2018-May-11 10:56N 32°53' E 034°59'0 0.0
2018-May-11 10:05N 32°53' E 034°59'0 0.1
2018-May-11 09:59N 32°53' E 034°59'0 0.0
2018-May-11 09:26N 32°53' E 034°59'0 0.0
2018-May-11 08:52N 32°53' E 034°59'0 0.1
2018-May-11 08:29N 32°53' E 034°59'0 0.0
2018-May-11 07:56N 32°53' E 034°59'0 0.0
2018-May-11 07:26N 32°53' E 034°59'0 0.0
2018-May-11 06:56N 32°53' E 034°59'0 0.0
2018-May-11 06:26N 32°53' E 034°59'0 0.0
2018-May-11 05:48N 32°53' E 034°59'0 0.0
2018-May-11 05:15N 32°53' E 034°59'0 0.0
2018-May-11 04:06N 32°53' E 034°59'0 0.1
2018-May-11 03:45N 32°53' E 034°59'0 0.0
2018-May-11 03:06N 32°53' E 034°59'0 0.0
2018-May-11 02:57N 32°53' E 034°59'0 0.0
2018-May-11 02:15N 32°53' E 034°59'0 0.0
2018-May-11 02:00N 32°53' E 034°59'0 0.0
2018-May-11 00:46N 32°53' E 034°59'0 0.0
2018-May-10 22:38N 32°53' E 034°59'0 0.1
2018-May-10 22:21N 32°53' E 034°59'  
Track history (hours):
 
Tides and Currents Weather Stations Pressure Air Temp Water Temp Dewpoint Dewpoint Depression Visibility Wind Speed Wind Dir Waves Ship Positions

Cinzia A

Last reported at 2018-May-20 17:31 UTC. Time now 2018-May-20 17:49 UTC.
Position N 41°17' E 002°25'.

Length 200 m; draft 9.2 m.

Type: Ship (hazmat cat A). MMSI: 271044448.

Date/timePositionNaut miles runAvg speedWind from/ knotsBaromVisibWave heightAir tempDewpointWater temp
2018-May-20 17:31N 41°17' E 002°25'611.5
2018-May-20 17:01N 41°21' E 002°31'14811.9
2018-May-20 04:38N 43°05' E 004°53'211.6
2018-May-20 04:30N 43°06' E 004°54'611.6
2018-May-20 04:00N 43°10' E 004°59'510.7
2018-May-20 03:30N 43°16' E 004°60'611.4
2018-May-20 03:00N 43°21' E 004°58'5 9.6
2018-May-20 02:30N 43°24' E 004°52'2 3.4
2018-May-20 01:59N 43°25' E 004°50'0 0.0
2018-May-20 01:14N 43°25' E 004°50'0 0.0
2018-May-20 00:59N 43°25' E 004°50'0 0.0
2018-May-20 00:29N 43°25' E 004°50'0 0.0
2018-May-20 00:00N 43°25' E 004°50'0 0.0
2018-May-19 23:28N 43°25' E 004°50'0 0.0
2018-May-19 23:00N 43°25' E 004°50'0 0.0
2018-May-19 22:28N 43°25' E 004°50'0 0.0
2018-May-19 21:55N 43°25' E 004°50'0 0.0
2018-May-19 21:25N 43°25' E 004°50'0 0.0
2018-May-19 20:58N 43°25' E 004°50'0 0.0
2018-May-19 20:23N 43°25' E 004°50'0 0.0
2018-May-19 19:38N 43°25' E 004°50'0 0.0
2018-May-19 19:23N 43°25' E 004°50'0 0.0
2018-May-19 18:59N 43°25' E 004°50'0 0.0
2018-May-19 18:26N 43°25' E 004°50'0 0.0
2018-May-19 17:57N 43°25' E 004°50'0 0.0
2018-May-19 17:30N 43°25' E 004°50'0 0.5
2018-May-19 17:00N 43°25' E 004°51'4 7.1
2018-May-19 16:31N 43°24' E 004°55'611.1
2018-May-19 16:00N 43°19' E 004°60'611.6
2018-May-19 15:28N 43°13' E 005°02'7911.2
2018-May-19 08:25N 42°55' E 006°48'914.4
2018-May-19 07:47N 43°01' E 006°57'614.4
2018-May-19 07:23N 43°05' E 007°03'514.2
2018-May-19 07:00N 43°09' E 007°08'713.9
2018-May-19 06:30N 43°14' E 007°15'713.9
2018-May-19 06:00N 43°18' E 007°22'714.3
2018-May-19 05:30N 43°23' E 007°30'714.5
2018-May-19 05:00N 43°27' E 007°38'714.4
2018-May-19 04:30N 43°32' E 007°46'714.3
2018-May-19 04:00N 43°37' E 007°52'714.8
2018-May-19 03:30N 43°42' E 007°60'714.6
2018-May-19 03:00N 43°47' E 008°07'714.4
2018-May-19 02:30N 43°52' E 008°14'714.4
2018-May-19 02:00N 43°57' E 008°22'714.2
2018-May-19 01:30N 44°01' E 008°29'714.3
2018-May-19 01:00N 44°06' E 008°36'714.0
2018-May-19 00:30N 44°11' E 008°44'713.9
2018-May-19 00:00N 44°16' E 008°51'713.6
2018-May-18 23:30N 44°20' E 008°57'4 8.3
2018-May-18 23:00N 44°24' E 008°54'0 0.9
2018-May-18 22:29N 44°24' E 008°54'0 0.0
2018-May-18 21:53N 44°24' E 008°54'0 0.0
2018-May-18 21:29N 44°24' E 008°54'0 0.0
2018-May-18 20:59N 44°24' E 008°54'0 0.0
2018-May-18 20:29N 44°24' E 008°54'0 0.0
2018-May-18 19:59N 44°24' E 008°54'0 0.0
2018-May-18 19:29N 44°24' E 008°54'0 0.0
2018-May-18 18:59N 44°24' E 008°54'0 0.0
2018-May-18 18:29N 44°24' E 008°54'0 0.0
2018-May-18 17:59N 44°24' E 008°54'0 0.0
2018-May-18 17:29N 44°24' E 008°54'1 1.8
2018-May-18 17:01N 44°24' E 008°55'3 6.0
2018-May-18 16:30N 44°22' E 008°58'0 0.6
2018-May-18 16:00N 44°22' E 008°58'0 0.4
2018-May-18 15:30N 44°22' E 008°59'1 1.3
2018-May-18 15:00N 44°21' E 008°59'4 7.3
2018-May-18 14:30N 44°18' E 009°00'612.7
2018-May-18 14:00N 44°12' E 009°03'713.0
2018-May-18 13:30N 44°06' E 009°07'713.1
2018-May-18 13:00N 43°60' E 009°10'612.9
2018-May-18 12:30N 43°54' E 009°13'612.9
2018-May-18 12:00N 43°48' E 009°16'712.9
2018-May-18 11:30N 43°41' E 009°19'613.2
2018-May-18 11:00N 43°35' E 009°22'713.3
2018-May-18 10:30N 43°29' E 009°25'713.3
2018-May-18 10:01N 43°23' E 009°29'714.0
2018-May-18 09:30N 43°16' E 009°32'714.0
2018-May-18 09:01N 43°10' E 009°36'714.5
2018-May-18 08:31N 43°03' E 009°39'714.9
2018-May-18 08:00N 42°56' E 009°41'1014.5
2018-May-18 07:21N 42°46' E 009°44'32714.2
2018-May-17 08:19N 38°56' E 014°50'514.6
2018-May-17 07:58N 38°53' E 014°55'714.5
2018-May-17 07:30N 38°49' E 015°02'714.5
2018-May-17 06:59N 38°43' E 015°09'714.6
2018-May-17 06:30N 38°39' E 015°16'814.9
2018-May-17 05:59N 38°33' E 015°23'715.0
2018-May-17 05:30N 38°28' E 015°30'714.7
2018-May-17 05:01N 38°24' E 015°36'714.2
2018-May-17 04:30N 38°18' E 015°42'713.7
2018-May-17 04:01N 38°13' E 015°37'713.9
2018-May-17 03:30N 38°06' E 015°36'814.8
2018-May-17 02:59N 37°58' E 015°36'714.4
2018-May-17 02:31N 37°53' E 015°41'815.8
2018-May-17 02:01N 37°51' E 015°51'815.6
2018-May-17 01:28N 37°48' E 016°01'73616.1
2018-May-15 03:54N 34°08' E 030°29'716.3
2018-May-15 03:29N 34°05' E 030°36'816.7
2018-May-15 03:00N 34°02' E 030°45'916.7
2018-May-15 02:28N 33°59' E 030°55'816.9
2018-May-15 01:59N 33°56' E 031°04'816.9
2018-May-15 01:30N 33°53' E 031°13'1016.8
2018-May-15 00:55N 33°49' E 031°24'3716.6
2018-May-14 22:41N 33°36' E 032°06'817.0
2018-May-14 22:13N 33°33' E 032°15'12416.6
2018-May-14 14:46N 32°57' E 034°36'416.1
2018-May-14 14:30N 32°56' E 034°41'816.4
2018-May-14 14:00N 32°54' E 034°51'7 0.2
2018-May-12 21:07N 32°53' E 034°59'1 1.2
2018-May-12 20:29N 32°53' E 034°59'0 0.0
2018-May-12 18:37N 32°53' E 034°59'0 0.1
2018-May-12 18:28N 32°53' E 034°59'0 0.0
2018-May-12 17:18N 32°53' E 034°59'0 0.0
2018-May-12 17:00N 32°53' E 034°59'0 0.0
2018-May-12 16:28N 32°53' E 034°59'0 0.0
2018-May-12 15:39N 32°53' E 034°59'0 0.1
2018-May-12 15:26N 32°53' E 034°59'0 0.0
2018-May-12 14:58N 32°53' E 034°59'0 0.0
2018-May-12 14:30N 32°53' E 034°59'0 0.0
2018-May-12 14:00N 32°53' E 034°59'0 0.0
2018-May-12 13:29N 32°53' E 034°59'0 0.0
2018-May-12 13:00N 32°53' E 034°59'0 0.0
2018-May-12 12:30N 32°53' E 034°59'0 0.0
2018-May-12 11:59N 32°53' E 034°59'0 0.1
2018-May-12 11:29N 32°53' E 034°59'0 0.0
2018-May-12 10:48N 32°53' E 034°59'0 0.0
2018-May-12 09:14N 32°53' E 034°59'0 0.0
2018-May-12 08:49N 32°53' E 034°59'0 0.0
2018-May-12 08:24N 32°53' E 034°59'0 0.0
2018-May-12 07:58N 32°53' E 034°59'0 0.1
2018-May-12 07:30N 32°53' E 034°59'0 0.1
2018-May-12 06:54N 32°53' E 034°59'0 0.0
2018-May-12 06:31N 32°53' E 034°59'0 0.0
2018-May-12 04:53N 32°53' E 034°59'0 0.0
2018-May-12 04:27N 32°53' E 034°59'0 0.0
2018-May-12 04:00N 32°53' E 034°59'0 0.0
2018-May-12 03:27N 32°53' E 034°59'0 0.0
2018-May-12 02:59N 32°53' E 034°59'0 0.0
2018-May-12 02:29N 32°53' E 034°59'0 0.0
2018-May-12 01:54N 32°53' E 034°59'0 0.1
2018-May-12 01:30N 32°53' E 034°59'0 0.2
2018-May-12 01:00N 32°53' E 034°59'0 0.2
2018-May-12 00:21N 32°53' E 034°59'0 0.1
2018-May-11 23:56N 32°53' E 034°59'0 0.1
2018-May-11 23:29N 32°53' E 034°59'0 0.1
2018-May-11 22:54N 32°53' E 034°59'0 0.0
2018-May-11 21:32N 32°53' E 034°59'0 0.1
2018-May-11 21:14N 32°53' E 034°59'0 0.0
2018-May-11 20:52N 32°53' E 034°59'0 0.0
2018-May-11 20:24N 32°53' E 034°59'0 0.0
2018-May-11 19:59N 32°53' E 034°59'0 0.0
2018-May-11 19:28N 32°53' E 034°59'0 0.0
2018-May-11 17:13N 32°53' E 034°59'0 0.1
2018-May-11 16:45N 32°53' E 034°59'0 0.1
2018-May-11 16:28N 32°53' E 034°59'0 0.0
2018-May-11 15:59N 32°53' E 034°59'0 0.0
2018-May-11 14:32N 32°53' E 034°59'0 0.1
2018-May-11 14:14N 32°53' E 034°59'0 0.1
2018-May-11 13:53N 32°53' E 034°59'0 0.1
2018-May-11 13:29N 32°53' E 034°59'0 0.1
2018-May-11 12:50N 32°53' E 034°59'0 0.0
2018-May-11 12:05N 32°53' E 034°59'0 0.1
2018-May-11 12:00N 32°53' E 034°59'0 0.0
2018-May-11 11:11N 32°53' E 034°59'0 0.1
2018-May-11 10:56N 32°53' E 034°59'0 0.0
2018-May-11 10:05N 32°53' E 034°59'0 0.1
2018-May-11 09:59N 32°53' E 034°59'0 0.0
2018-May-11 09:26N 32°53' E 034°59'0 0.0
2018-May-11 08:52N 32°53' E 034°59'0 0.1
2018-May-11 08:29N 32°53' E 034°59'0 0.0
2018-May-11 07:56N 32°53' E 034°59'0 0.0
2018-May-11 07:26N 32°53' E 034°59'0 0.0
2018-May-11 06:56N 32°53' E 034°59'0 0.0
2018-May-11 06:26N 32°53' E 034°59'0 0.0
2018-May-11 05:48N 32°53' E 034°59'0 0.0
2018-May-11 05:15N 32°53' E 034°59'0 0.0
2018-May-11 04:06N 32°53' E 034°59'0 0.1
2018-May-11 03:45N 32°53' E 034°59'0 0.0
2018-May-11 03:06N 32°53' E 034°59'0 0.0
2018-May-11 02:57N 32°53' E 034°59'0 0.0
2018-May-11 02:15N 32°53' E 034°59'0 0.0
2018-May-11 02:00N 32°53' E 034°59'0 0.0
2018-May-11 00:46N 32°53' E 034°59'0 0.0
2018-May-10 22:38N 32°53' E 034°59'0 0.1
2018-May-10 22:21N 32°53' E 034°59'  

Dump ship's entire track history